createdAt,value
2022-10-28T00:00:03.012Z,101748.97
2022-10-28T00:06:06.224Z,101821.81
2022-10-28T00:12:03.867Z,101866.66
2022-10-28T00:17:38.016Z,101737.09
2022-10-28T00:20:24.285Z,101736.25
2022-10-28T00:22:59.637Z,101788.06
2022-10-28T00:25:49.537Z,101757.00
2022-10-28T00:28:26.933Z,101792.03
2022-10-28T00:31:09.081Z,101853.53
2022-10-28T00:33:54.715Z,101847.06
2022-10-28T00:36:33.542Z,101763.34
2022-10-28T00:39:15.168Z,101791.34
2022-10-28T00:42:00.120Z,101800.28
2022-10-28T00:48:05.037Z,101861.69
2022-10-28T00:53:57.086Z,101857.88
2022-10-28T00:56:41.534Z,101686.06
2022-10-28T00:59:54.471Z,101750.19
2022-10-28T01:02:45.138Z,101787.44
2022-10-28T01:05:51.019Z,101754.28
2022-10-28T01:11:54.499Z,101730.69
2022-10-28T01:15:04.716Z,101767.66
2022-10-28T01:18:10.894Z,101829.66
2022-10-28T01:21:20.155Z,101830.75
2022-10-28T01:24:18.818Z,101754.59
2022-10-28T01:27:41.087Z,101775.25
2022-10-28T01:30:28.816Z,101718.16
2022-10-28T01:45:36.050Z,101815.56
2022-10-28T01:48:45.939Z,101810.69
2022-10-28T01:51:25.170Z,101805.22
2022-10-28T01:54:16.857Z,101644.00
2022-10-28T01:56:59.370Z,101801.44
2022-10-28T01:59:56.653Z,101765.25
2022-10-28T02:02:39.835Z,101637.72
2022-10-28T02:06:01.145Z,101636.63
2022-10-28T02:09:19.125Z,101626.31
2022-10-28T02:12:30.672Z,101631.50
2022-10-28T02:15:41.187Z,101789.50
2022-10-28T02:21:28.513Z,101788.69
2022-10-28T02:24:28.369Z,101661.66
2022-10-28T02:33:19.363Z,101747.06
2022-10-28T02:36:05.111Z,101781.84
2022-10-28T02:38:48.380Z,101775.31
2022-10-28T02:41:51.865Z,101784.06
2022-10-28T02:48:14.758Z,101657.34
2022-10-28T02:54:25.646Z,101761.47
2022-10-28T02:57:04.822Z,101590.97
2022-10-28T02:59:32.872Z,101720.41
2022-10-28T03:02:20.647Z,101717.13
2022-10-28T03:04:52.422Z,101662.50
2022-10-28T03:07:19.920Z,101688.31
2022-10-28T03:10:16.884Z,101599.69
2022-10-28T03:12:50.594Z,101756.03
2022-10-28T03:15:31.092Z,101716.59
2022-10-28T03:18:16.693Z,101694.00
2022-10-28T03:20:46.950Z,101673.63
2022-10-28T03:23:30.872Z,101741.88
2022-10-28T03:25:57.826Z,101727.47
2022-10-28T03:31:25.253Z,101703.81
2022-10-28T03:34:18.741Z,101570.88
2022-10-28T03:36:49.039Z,101732.38
2022-10-28T03:39:22.629Z,101715.50
2022-10-28T03:42:08.528Z,101519.50
2022-10-28T03:44:51.745Z,101719.31
2022-10-28T03:47:27.162Z,101687.78
2022-10-28T03:49:59.162Z,101593.69
2022-10-28T03:52:41.024Z,101633.38
2022-10-28T03:55:29.637Z,101623.03
2022-10-28T03:58:01.328Z,101577.38
2022-10-28T04:01:02.093Z,101724.75
2022-10-28T04:03:54.919Z,101623.34
2022-10-28T04:06:37.867Z,101685.91
2022-10-28T04:09:21.465Z,101673.91
2022-10-28T04:12:12.619Z,101716.06
2022-10-28T04:17:43.735Z,101567.06
2022-10-28T04:20:28.629Z,101679.31
2022-10-28T04:23:05.925Z,101704.66
2022-10-28T04:25:41.511Z,101621.13
2022-10-28T04:28:36.731Z,101553.72
2022-10-28T04:31:30.734Z,101722.34
2022-10-28T04:37:05.597Z,101640.72
2022-10-28T04:42:34.071Z,101558.91
2022-10-28T04:45:11.792Z,101697.56
2022-10-28T04:50:35.450Z,101639.91
2022-10-28T04:53:17.351Z,101564.31
2022-10-28T04:55:58.129Z,101707.09
2022-10-28T04:59:06.748Z,101640.72
2022-10-28T05:01:45.997Z,101534.44
2022-10-28T05:04:26.427Z,101657.84
2022-10-28T05:06:59.278Z,101690.50
2022-10-28T05:09:44.986Z,101521.94
2022-10-28T05:12:19.420Z,101608.91
2022-10-28T05:14:54.391Z,101623.59
2022-10-28T05:17:29.632Z,101582.81
2022-10-28T05:20:04.170Z,101686.41
2022-10-28T05:22:40.515Z,101520.28
2022-10-28T05:25:16.777Z,101577.38
2022-10-28T05:27:48.431Z,101592.03
2022-10-28T05:30:17.446Z,101525.72
2022-10-28T05:32:44.332Z,101691.00
2022-10-28T05:35:20.503Z,101666.25
2022-10-28T05:37:47.950Z,101665.47
2022-10-28T05:40:52.173Z,101519.22
2022-10-28T05:43:22.794Z,101586.34
2022-10-28T05:46:00.184Z,101596.94
2022-10-28T05:48:27.929Z,101664.38
2022-10-28T05:51:06.133Z,101687.75
2022-10-28T05:53:44.286Z,101631.47
2022-10-28T05:56:17.313Z,101516.97
2022-10-28T05:58:55.263Z,101690.19
2022-10-28T06:01:28.220Z,101528.97
2022-10-28T06:04:03.497Z,101605.63
2022-10-28T06:06:32.293Z,101593.66
2022-10-28T06:09:07.442Z,101681.75
2022-10-28T06:11:35.143Z,101586.06
2022-10-28T06:14:28.207Z,101637.72
2022-10-28T06:17:10.139Z,101636.09
2022-10-28T06:19:44.036Z,101667.06
2022-10-28T06:22:37.418Z,101667.63
2022-10-28T06:25:10.105Z,101551.50
2022-10-28T06:27:41.795Z,101571.34
2022-10-28T06:30:26.252Z,101616.50
2022-10-28T06:33:03.590Z,101499.03
2022-10-28T06:35:49.902Z,101669.53
2022-10-28T06:38:27.393Z,101517.19
2022-10-28T06:41:06.366Z,101666.50
2022-10-28T06:43:52.630Z,101671.41
2022-10-28T06:46:37.489Z,101582.72
2022-10-28T06:49:10.067Z,101585.16
2022-10-28T06:51:54.748Z,101584.13
2022-10-28T06:54:43.251Z,101670.88
2022-10-28T06:57:24.493Z,101599.06
2022-10-28T07:03:29.066Z,101515.31
2022-10-28T07:05:55.838Z,101583.88
2022-10-28T07:08:46.320Z,101697.56
2022-10-28T07:11:33.834Z,101681.78
2022-10-28T07:14:09.911Z,101676.34
2022-10-28T07:16:38.226Z,101689.38
2022-10-28T07:22:03.698Z,101570.06
2022-10-28T07:25:00.436Z,101532.00
2022-10-28T07:28:00.886Z,101695.97
2022-10-28T07:30:42.042Z,101650.81
2022-10-28T07:33:39.252Z,101530.63
2022-10-28T07:38:55.208Z,101608.91
2022-10-28T07:41:35.013Z,101638.53
2022-10-28T07:44:01.716Z,101545.84
2022-10-28T07:46:38.321Z,101663.50
2022-10-28T07:52:04.472Z,101661.56
2022-10-28T07:54:45.785Z,101538.72
2022-10-28T07:57:19.581Z,101666.97
2022-10-28T08:03:21.073Z,101624.59
2022-10-28T08:13:12.265Z,101528.38
2022-10-28T08:15:41.540Z,101698.88
2022-10-28T08:18:14.191Z,101537.25
2022-10-28T08:20:44.784Z,101661.06
2022-10-28T08:23:14.341Z,101615.34
2022-10-28T08:46:50.260Z,101650.03
2022-10-28T08:53:07.109Z,101700.75
2022-10-28T08:55:43.971Z,101570.28
2022-10-28T08:58:40.002Z,101674.69
2022-10-28T09:01:41.896Z,101623.25
2022-10-28T09:04:39.044Z,101633.03
2022-10-28T09:07:22.057Z,101595.09
2022-10-28T09:09:52.808Z,101568.44
2022-10-28T09:12:41.038Z,101726.06
2022-10-28T09:16:02.921Z,101701.56
2022-10-28T09:21:51.020Z,101553.13
2022-10-28T09:28:00.944Z,101539.75
2022-10-28T09:31:14.899Z,101564.97
2022-10-28T09:34:05.075Z,101710.28
2022-10-28T09:36:41.597Z,101718.22
2022-10-28T09:42:28.207Z,101642.84
2022-10-28T09:45:14.207Z,101631.63
2022-10-28T09:48:18.262Z,101704.81
2022-10-28T09:51:16.376Z,101545.56
2022-10-28T10:00:37.763Z,101609.88
2022-10-28T10:03:18.916Z,101621.78
2022-10-28T10:06:14.783Z,101701.97
2022-10-28T10:08:50.688Z,101554.72
2022-10-28T10:11:34.373Z,101653.50
2022-10-28T10:14:24.572Z,101624.72
2022-10-28T10:17:02.794Z,101573.59
2022-10-28T10:20:11.447Z,101647.22
2022-10-28T10:23:25.399Z,101666.34
2022-10-28T10:26:15.246Z,101633.69
2022-10-28T10:32:36.378Z,101683.16
2022-10-28T10:35:28.474Z,101540.56
2022-10-28T10:41:46.271Z,101631.59
2022-10-28T10:44:44.495Z,101595.44
2022-10-28T10:47:33.903Z,101662.22
2022-10-28T10:50:42.364Z,101632.88
2022-10-28T10:53:27.313Z,101685.81
2022-10-28T10:56:14.704Z,101580.94
2022-10-28T10:58:50.572Z,101546.47
2022-10-28T11:01:30.199Z,101577.50
2022-10-28T11:04:19.190Z,101671.41
2022-10-28T11:07:38.205Z,101561.19
2022-10-28T11:10:50.550Z,101654.06
2022-10-28T11:13:33.746Z,101541.06
2022-10-28T11:16:32.584Z,101592.66
2022-10-28T11:19:37.509Z,101486.91
2022-10-28T11:22:39.627Z,101615.03
2022-10-28T11:25:35.740Z,101464.56
2022-10-28T11:28:45.073Z,101482.97
2022-10-28T11:31:47.341Z,101463.59
2022-10-28T11:34:45.490Z,101605.94
2022-10-28T11:37:35.215Z,101546.03
2022-10-28T11:40:25.580Z,101594.03
2022-10-28T11:43:15.029Z,101537.50
2022-10-28T11:45:51.538Z,101559.47
2022-10-28T11:48:39.457Z,101460.78
2022-10-28T11:51:37.179Z,101544.09
2022-10-28T11:54:27.668Z,101553.47
2022-10-28T11:57:17.881Z,101509.16
2022-10-28T12:00:23.762Z,101550.47
2022-10-28T12:03:14.852Z,101483.81
2022-10-28T12:05:52.973Z,101613.72
2022-10-28T12:08:48.383Z,101634.06
2022-10-28T12:11:37.009Z,101617.44
2022-10-28T12:14:26.187Z,101484.44
2022-10-28T12:17:17.415Z,101511.50
2022-10-28T12:19:57.521Z,101495.41
2022-10-28T12:22:49.259Z,101612.13
2022-10-28T12:28:41.389Z,101625.72
2022-10-28T12:31:29.140Z,101493.72
2022-10-28T12:34:03.258Z,101603.72
2022-10-28T12:36:35.427Z,101563.66
2022-10-28T12:39:22.078Z,101636.94
2022-10-28T12:42:16.914Z,101594.19
2022-10-28T12:44:53.722Z,101612.97
2022-10-28T12:47:30.226Z,101619.94
2022-10-28T12:50:11.375Z,101638.22
2022-10-28T12:52:56.341Z,101629.06
2022-10-28T12:55:41.990Z,101550.09
2022-10-28T12:58:37.735Z,101492.97
2022-10-28T13:01:29.634Z,101627.31
2022-10-28T13:04:32.370Z,101606.06
2022-10-28T13:07:34.108Z,101567.31
2022-10-28T13:10:17.194Z,101495.94
2022-10-28T13:13:30.479Z,101526.38
2022-10-28T13:16:28.487Z,101523.03
2022-10-28T13:22:49.711Z,101646.25
2022-10-28T13:26:07.568Z,101555.31
2022-10-28T13:28:51.184Z,101521.56
2022-10-28T13:31:59.319Z,101600.28
2022-10-28T13:34:45.559Z,101663.28
2022-10-28T13:37:35.827Z,101577.72
2022-10-28T13:40:53.461Z,101511.97
2022-10-28T13:50:37.835Z,101621.97
2022-10-28T13:53:38.352Z,101668.31
2022-10-28T13:56:53.796Z,101631.69
2022-10-28T13:59:36.269Z,101686.47
2022-10-28T14:02:36.258Z,101675.13
2022-10-28T14:05:30.668Z,101624.16
2022-10-28T14:08:05.513Z,101609.78
2022-10-28T14:10:59.024Z,101572.25
2022-10-28T14:13:44.532Z,101695.81
2022-10-28T14:16:30.087Z,101643.06
2022-10-28T14:19:35.819Z,101559.91
2022-10-28T14:22:20.796Z,101545.59
2022-10-28T14:25:00.751Z,101666.00
2022-10-28T14:27:43.500Z,101707.50
2022-10-28T14:30:31.231Z,101668.25
2022-10-28T14:33:27.360Z,101564.16
2022-10-28T14:36:21.030Z,101557.19
2022-10-28T14:39:28.460Z,101632.94
2022-10-28T14:42:31.430Z,101668.25
2022-10-28T14:45:36.760Z,101570.47
2022-10-28T14:48:51.261Z,101575.56
2022-10-28T14:51:46.035Z,101634.97
2022-10-28T14:54:23.929Z,101619.06
2022-10-28T14:57:15.642Z,101583.44
2022-10-28T14:59:54.983Z,101718.22
2022-10-28T15:02:29.565Z,101726.44
2022-10-28T15:05:05.006Z,101685.03
2022-10-28T15:07:37.836Z,101716.22
2022-10-28T15:10:26.322Z,101730.44
2022-10-28T15:16:54.313Z,101735.47
2022-10-28T15:19:43.134Z,101600.66
2022-10-28T15:22:48.487Z,101641.28
2022-10-28T15:25:30.432Z,101593.22
2022-10-28T15:28:01.874Z,101636.63
2022-10-28T15:31:07.407Z,101757.59
2022-10-28T15:33:49.019Z,101780.72
2022-10-28T15:50:30.127Z,101791.81
2022-10-28T16:16:49.616Z,101816.16
2022-10-28T16:20:02.095Z,101689.56
2022-10-28T16:22:58.694Z,101815.41
2022-10-28T16:58:26.131Z,101776.81
2022-10-28T17:02:02.960Z,101870.38
2022-10-28T17:04:23.998Z,101876.63
2022-10-28T17:13:39.885Z,101841.41
2022-10-28T17:16:21.730Z,101880.63
2022-10-28T17:21:46.113Z,101859.25
2022-10-28T17:24:26.528Z,101774.91
2022-10-28T17:26:58.886Z,101904.94
2022-10-28T17:29:49.240Z,101843.34
2022-10-28T17:32:26.260Z,101789.09
2022-10-28T17:36:24.164Z,101919.53
2022-10-28T17:39:00.264Z,101764.50
2022-10-28T17:44:47.749Z,101824.06
2022-10-28T17:47:27.972Z,101809.97
2022-10-28T17:50:19.268Z,101791.56
2022-10-28T18:05:26.452Z,101941.06
2022-10-28T18:08:32.605Z,101813.44
2022-10-28T18:11:58.740Z,101818.38
2022-10-28T18:14:37.722Z,101956.88
2022-10-28T18:17:24.801Z,101831.38
2022-10-28T18:20:24.033Z,101957.13
2022-10-28T18:23:35.061Z,101862.28
2022-10-28T18:26:22.666Z,101961.84
2022-10-28T18:29:08.205Z,101831.97
2022-10-28T18:31:48.640Z,101967.81
2022-10-28T18:37:29.769Z,101943.19
2022-10-28T18:40:36.971Z,102008.84
2022-10-28T18:43:20.643Z,101964.22
2022-10-28T18:51:46.230Z,101870.28
2022-10-28T18:57:43.892Z,102014.97
2022-10-28T19:13:27.164Z,102023.84
2022-10-28T19:19:16.709Z,102006.13
2022-10-28T19:25:18.329Z,102022.63
2022-10-28T19:34:31.887Z,102043.72
2022-10-28T19:47:13.248Z,102056.84
2022-10-28T19:51:09.896Z,102070.53
2022-10-28T19:57:55.221Z,102040.56
2022-10-28T20:00:33.916Z,101942.53
2022-10-28T20:13:24.916Z,102085.25
2022-10-28T20:16:22.793Z,102099.19
2022-10-28T20:19:20.922Z,102015.00
2022-10-28T20:22:20.965Z,102033.25
2022-10-28T20:24:59.689Z,102049.38
2022-10-28T20:27:46.376Z,101994.34
2022-10-28T20:30:22.341Z,102051.00
2022-10-28T20:36:32.009Z,101959.97
2022-10-28T20:39:29.348Z,101980.16
2022-10-28T20:42:36.049Z,102112.13
2022-10-28T20:45:45.192Z,101988.03
2022-10-28T20:48:27.194Z,102118.34
2022-10-28T20:51:06.133Z,101960.50
2022-10-28T20:54:15.929Z,102136.66
2022-10-28T20:57:05.447Z,102105.00
2022-10-28T20:59:57.144Z,102048.53
2022-10-28T21:06:01.642Z,102075.25
2022-10-28T21:25:46.750Z,101958.69
2022-10-28T21:44:03.597Z,101978.44
2022-10-28T21:46:43.137Z,101992.84
2022-10-28T21:49:36.616Z,102116.22
2022-10-28T21:52:40.935Z,101990.59
2022-10-28T21:56:00.972Z,102117.00
2022-10-28T22:02:20.945Z,102018.88
2022-10-28T22:11:50.980Z,102156.44
2022-10-28T22:25:20.935Z,102165.03
2022-10-28T22:31:37.401Z,102199.81
2022-10-28T22:38:16.463Z,102017.88
2022-10-28T22:44:23.326Z,102192.09
2022-10-28T22:47:42.539Z,102092.53
2022-10-28T22:50:50.965Z,102193.34
2022-10-28T22:57:21.821Z,102163.72
2022-10-28T23:00:11.963Z,102151.47
2022-10-28T23:20:19.338Z,102044.03
2022-10-28T23:32:31.205Z,102052.38
2022-10-28T23:35:32.259Z,102049.47
2022-10-28T23:38:05.626Z,102074.66
2022-10-28T23:41:14.682Z,102172.50
2022-10-28T23:44:15.082Z,102166.50
2022-10-28T23:47:45.211Z,102122.69
2022-10-28T23:57:07.698Z,102111.66
